createdAt,value
2019-01-18T00:00:14.468Z,0.70
2019-01-18T00:01:14.464Z,0.60
2019-01-18T00:02:14.446Z,0.70
2019-01-18T00:03:14.434Z,0.70
2019-01-18T00:04:14.423Z,0.60
2019-01-18T00:05:14.411Z,0.60
2019-01-18T00:06:14.402Z,0.70
2019-01-18T00:07:14.398Z,0.60
2019-01-18T00:08:14.378Z,0.70
2019-01-18T00:09:14.367Z,0.70
2019-01-18T00:10:14.356Z,0.80
2019-01-18T00:11:14.344Z,0.80
2019-01-18T00:12:14.332Z,0.70
2019-01-18T00:13:14.331Z,0.60
2019-01-18T00:14:14.310Z,0.70
2019-01-18T00:15:14.299Z,0.80
2019-01-18T00:16:14.291Z,0.80
2019-01-18T00:17:14.277Z,0.90
2019-01-18T00:18:14.265Z,0.60
2019-01-18T00:19:14.261Z,0.70
2019-01-18T00:20:14.243Z,0.70
2019-01-18T00:21:14.236Z,0.70
2019-01-18T00:22:14.219Z,0.80
2019-01-18T00:23:14.208Z,0.70
2019-01-18T00:24:14.198Z,0.60
2019-01-18T00:25:14.194Z,0.70
2019-01-18T00:26:14.175Z,0.80
2019-01-18T00:27:14.165Z,0.70
2019-01-18T00:28:14.152Z,0.60
2019-01-18T00:29:14.141Z,0.60
2019-01-18T00:30:14.129Z,0.60
2019-01-18T00:31:15.098Z,0.70
2019-01-18T00:32:14.107Z,0.70
2019-01-18T00:33:14.095Z,0.60
2019-01-18T00:34:14.083Z,0.70
2019-01-18T00:35:14.075Z,0.70
2019-01-18T00:36:14.064Z,0.60
2019-01-18T00:37:14.059Z,0.80
2019-01-18T00:38:14.039Z,0.70
2019-01-18T00:39:14.027Z,0.70
2019-01-18T00:40:14.018Z,0.70
2019-01-18T00:41:14.005Z,0.70
2019-01-18T00:42:13.995Z,0.80
2019-01-18T00:43:13.993Z,0.70
2019-01-18T00:44:13.971Z,0.80
2019-01-18T00:45:13.960Z,0.60
2019-01-18T00:46:13.951Z,0.70
2019-01-18T00:47:13.937Z,0.70
2019-01-18T00:48:13.928Z,0.70
2019-01-18T00:49:13.923Z,0.70
2019-01-18T00:50:13.905Z,0.60
2019-01-18T00:51:13.894Z,0.70
2019-01-18T00:52:13.882Z,0.80
2019-01-18T00:53:13.870Z,0.70
2019-01-18T00:54:13.859Z,0.70
2019-01-18T00:55:13.855Z,0.70
2019-01-18T00:56:13.836Z,0.60
2019-01-18T00:57:13.825Z,0.70
2019-01-18T00:58:13.818Z,0.60
2019-01-18T00:59:13.805Z,0.70
2019-01-18T01:00:13.794Z,0.70
2019-01-18T01:01:13.789Z,0.80
2019-01-18T01:02:13.769Z,0.70
2019-01-18T01:03:13.757Z,0.60
2019-01-18T01:04:13.746Z,0.60
2019-01-18T01:05:13.736Z,0.70
2019-01-18T01:06:13.724Z,0.60
2019-01-18T01:07:13.720Z,0.70
2019-01-18T01:08:13.702Z,0.70
2019-01-18T01:09:13.690Z,0.70
2019-01-18T01:10:13.680Z,0.60
2019-01-18T01:11:13.667Z,0.50
2019-01-18T01:12:13.656Z,0.60
2019-01-18T01:13:13.652Z,0.60
2019-01-18T01:14:13.633Z,0.60
2019-01-18T01:15:13.624Z,0.80
2019-01-18T01:16:13.612Z,0.70
2019-01-18T01:17:13.599Z,0.60
2019-01-18T01:18:13.589Z,0.60
2019-01-18T01:19:13.585Z,0.70
2019-01-18T01:20:13.565Z,0.90
2019-01-18T01:21:13.554Z,0.70
2019-01-18T01:22:13.542Z,0.50
2019-01-18T01:23:13.532Z,0.60
2019-01-18T01:24:13.520Z,0.60
2019-01-18T01:25:13.517Z,0.50
2019-01-18T01:26:13.502Z,0.70
2019-01-18T01:27:13.486Z,0.60
2019-01-18T01:28:13.474Z,0.80
2019-01-18T01:29:13.464Z,0.80
2019-01-18T01:30:13.453Z,0.70
2019-01-18T01:31:13.451Z,0.60
2019-01-18T01:32:13.430Z,0.80
2019-01-18T01:33:13.419Z,0.70
2019-01-18T01:34:13.407Z,0.70
2019-01-18T01:35:13.396Z,0.60
2019-01-18T01:36:13.385Z,0.60
2019-01-18T01:37:13.382Z,0.70
2019-01-18T01:38:13.362Z,0.70
2019-01-18T01:39:13.351Z,0.60
2019-01-18T01:40:13.341Z,0.60
2019-01-18T01:41:13.329Z,0.70
2019-01-18T01:42:13.317Z,0.70
2019-01-18T01:43:13.318Z,0.60
2019-01-18T01:44:13.295Z,0.70
2019-01-18T01:45:13.284Z,0.60
2019-01-18T01:46:13.273Z,0.50
2019-01-18T01:47:13.261Z,0.50
2019-01-18T01:48:13.251Z,0.60
2019-01-18T01:49:13.262Z,0.60
2019-01-18T01:50:13.228Z,0.70
2019-01-18T01:51:13.219Z,0.60
2019-01-18T01:52:13.205Z,0.60
2019-01-18T01:53:13.192Z,0.60
2019-01-18T01:54:13.186Z,0.70
2019-01-18T01:55:13.179Z,0.60
2019-01-18T01:56:13.160Z,0.80
2019-01-18T01:57:13.148Z,0.60
2019-01-18T01:58:13.138Z,0.60
2019-01-18T01:59:13.128Z,0.70
2019-01-18T02:00:13.115Z,0.60
2019-01-18T02:01:13.112Z,0.60
2019-01-18T02:02:13.105Z,0.60
2019-01-18T02:03:13.080Z,0.70
2019-01-18T02:04:13.079Z,0.60
2019-01-18T02:05:13.060Z,0.50
2019-01-18T02:06:13.047Z,0.60
2019-01-18T02:07:13.043Z,0.50
2019-01-18T02:08:13.026Z,0.60
2019-01-18T02:09:13.016Z,0.70
2019-01-18T02:10:13.002Z,0.50
2019-01-18T02:11:12.993Z,0.60
2019-01-18T02:12:12.978Z,0.60
2019-01-18T02:13:12.977Z,0.60
2019-01-18T02:14:12.956Z,0.60
2019-01-18T02:15:12.945Z,0.60
2019-01-18T02:16:12.934Z,0.40
2019-01-18T02:17:12.922Z,0.60
2019-01-18T02:18:12.912Z,0.50
2019-01-18T02:19:12.913Z,0.60
2019-01-18T02:20:12.889Z,0.60
2019-01-18T02:21:12.878Z,0.60
2019-01-18T02:22:12.866Z,0.60
2019-01-18T02:23:12.856Z,0.60
2019-01-18T02:24:12.844Z,0.60
2019-01-18T02:25:12.842Z,0.50
2019-01-18T02:26:12.821Z,0.80
2019-01-18T02:27:12.809Z,0.70
2019-01-18T02:28:12.798Z,0.60
2019-01-18T02:29:12.787Z,0.60
2019-01-18T02:30:12.798Z,0.50
2019-01-18T02:31:12.782Z,0.60
2019-01-18T02:32:12.754Z,0.70
2019-01-18T02:33:12.743Z,0.60
2019-01-18T02:34:12.731Z,0.50
2019-01-18T02:35:12.719Z,0.60
2019-01-18T02:36:12.708Z,0.50
2019-01-18T02:37:12.704Z,0.70
2019-01-18T02:38:12.690Z,0.60
2019-01-18T02:39:12.674Z,0.60
2019-01-18T02:40:12.665Z,0.50
2019-01-18T02:41:12.653Z,0.60
2019-01-18T02:42:12.640Z,0.60
2019-01-18T02:43:12.637Z,0.70
2019-01-18T02:44:12.617Z,0.70
2019-01-18T02:45:12.607Z,0.50
2019-01-18T02:46:12.613Z,0.50
2019-01-18T02:47:12.583Z,0.60
2019-01-18T02:48:12.572Z,0.60
2019-01-18T02:49:12.836Z,0.60
2019-01-18T02:50:12.550Z,0.60
2019-01-18T02:51:12.538Z,0.50
2019-01-18T02:52:12.527Z,0.60
2019-01-18T02:53:12.522Z,0.50
2019-01-18T02:54:12.505Z,0.60
2019-01-18T02:55:12.500Z,0.60
2019-01-18T02:56:12.485Z,0.50
2019-01-18T02:57:12.472Z,0.60
2019-01-18T02:58:12.464Z,0.50
2019-01-18T02:59:12.450Z,0.50
2019-01-18T03:00:12.437Z,0.80
2019-01-18T03:01:12.439Z,0.70
2019-01-18T03:02:12.420Z,0.50
2019-01-18T03:03:12.405Z,0.60
2019-01-18T03:04:12.394Z,0.60
2019-01-18T03:05:12.381Z,0.60
2019-01-18T03:06:12.369Z,0.50
2019-01-18T03:07:12.366Z,0.60
2019-01-18T03:08:12.346Z,0.60
2019-01-18T03:09:12.336Z,0.60
2019-01-18T03:10:12.325Z,0.60
2019-01-18T03:11:12.312Z,0.70
2019-01-18T03:12:12.307Z,0.50
2019-01-18T03:13:12.300Z,0.60
2019-01-18T03:14:12.280Z,0.50
2019-01-18T03:15:12.299Z,0.70
2019-01-18T03:16:12.257Z,0.60
2019-01-18T03:17:12.249Z,0.50
2019-01-18T03:18:12.236Z,0.40
2019-01-18T03:19:12.245Z,0.50
2019-01-18T03:20:12.214Z,0.60
2019-01-18T03:21:12.200Z,0.60
2019-01-18T03:22:12.211Z,0.50
2019-01-18T03:23:12.180Z,0.50
2019-01-18T03:24:12.166Z,0.60
2019-01-18T03:25:12.162Z,0.50
2019-01-18T03:26:12.144Z,0.60
2019-01-18T03:27:12.134Z,0.60
2019-01-18T03:28:12.121Z,0.50
2019-01-18T03:29:12.111Z,0.60
2019-01-18T03:30:18.443Z,0.70
2019-01-18T03:31:13.112Z,0.50
2019-01-18T03:32:12.081Z,0.50
2019-01-18T03:33:12.103Z,0.50
2019-01-18T03:34:12.059Z,0.60
2019-01-18T03:35:12.042Z,0.50
2019-01-18T03:36:12.031Z,0.60
2019-01-18T03:37:12.028Z,0.60
2019-01-18T03:38:12.033Z,0.50
2019-01-18T03:39:11.998Z,0.70
2019-01-18T03:40:11.990Z,0.60
2019-01-18T03:41:11.976Z,0.50
2019-01-18T03:42:12.041Z,0.50
2019-01-18T03:43:11.961Z,0.40
2019-01-18T03:44:11.943Z,0.50
2019-01-18T03:45:11.932Z,0.60
2019-01-18T03:46:11.920Z,0.40
2019-01-18T03:47:11.909Z,0.60
2019-01-18T03:48:11.896Z,0.50
2019-01-18T03:49:11.894Z,0.60
2019-01-18T03:50:11.874Z,0.60
2019-01-18T03:51:11.864Z,0.50
2019-01-18T03:52:11.851Z,0.50
2019-01-18T03:53:11.841Z,0.50
2019-01-18T03:54:11.829Z,0.50
2019-01-18T03:55:11.841Z,0.50
2019-01-18T03:56:11.806Z,0.50
2019-01-18T03:57:11.794Z,0.50
2019-01-18T03:58:11.784Z,0.60
2019-01-18T03:59:11.772Z,0.60
2019-01-18T04:00:11.761Z,0.60
2019-01-18T04:01:11.760Z,0.50
2019-01-18T04:02:11.741Z,0.50
2019-01-18T04:03:11.729Z,0.60
2019-01-18T04:04:11.716Z,0.50
2019-01-18T04:05:11.707Z,0.60
2019-01-18T04:06:11.694Z,0.50
2019-01-18T04:07:11.692Z,0.70
2019-01-18T04:08:11.673Z,0.60
2019-01-18T04:09:11.670Z,0.50
2019-01-18T04:10:11.650Z,0.60
2019-01-18T04:11:11.649Z,0.40
2019-01-18T04:12:11.626Z,0.60
2019-01-18T04:13:11.623Z,0.60
2019-01-18T04:14:11.603Z,0.50
2019-01-18T04:15:11.592Z,0.50
2019-01-18T04:16:11.585Z,0.60
2019-01-18T04:17:11.569Z,0.70
2019-01-18T04:18:11.559Z,0.50
2019-01-18T04:19:11.557Z,0.50
2019-01-18T04:20:11.536Z,0.50
2019-01-18T04:21:11.525Z,0.50
2019-01-18T04:22:11.514Z,0.50
2019-01-18T04:23:11.502Z,0.50
2019-01-18T04:24:11.494Z,0.50
2019-01-18T04:25:11.507Z,0.50
2019-01-18T04:26:11.469Z,0.60
2019-01-18T04:27:11.456Z,0.50
2019-01-18T04:28:11.447Z,0.50
2019-01-18T04:29:11.434Z,0.60
2019-01-18T04:30:11.439Z,0.70
2019-01-18T04:31:11.420Z,0.60
2019-01-18T04:32:11.400Z,0.50
2019-01-18T04:33:11.388Z,0.70
2019-01-18T04:34:11.382Z,0.50
2019-01-18T04:35:11.367Z,0.50
2019-01-18T04:36:11.356Z,0.60
2019-01-18T04:37:11.353Z,0.60
2019-01-18T04:38:11.409Z,0.50
2019-01-18T04:39:11.321Z,0.60
2019-01-18T04:40:11.310Z,0.50
2019-01-18T04:41:11.298Z,0.50
2019-01-18T04:42:11.297Z,0.50
2019-01-18T04:43:11.284Z,0.70
2019-01-18T04:44:11.264Z,0.60
2019-01-18T04:45:11.263Z,0.60
2019-01-18T04:46:11.242Z,0.50
2019-01-18T04:47:11.231Z,0.60
2019-01-18T04:48:11.220Z,0.60
2019-01-18T04:49:11.504Z,0.60
2019-01-18T04:50:11.197Z,0.60
2019-01-18T04:51:11.189Z,0.40
2019-01-18T04:52:11.177Z,0.40
2019-01-18T04:53:11.166Z,0.40
2019-01-18T04:54:11.153Z,0.50
2019-01-18T04:55:11.459Z,0.40
2019-01-18T04:56:11.131Z,0.40
2019-01-18T04:57:11.118Z,0.50
2019-01-18T04:58:11.111Z,0.60
2019-01-18T04:59:11.097Z,0.60
2019-01-18T05:00:11.087Z,0.60
2019-01-18T05:01:11.084Z,0.50
2019-01-18T05:02:11.064Z,0.50
2019-01-18T05:03:11.074Z,0.60
2019-01-18T05:04:11.041Z,0.50
2019-01-18T05:05:11.030Z,0.60
2019-01-18T05:06:11.081Z,0.50
2019-01-18T05:07:11.016Z,0.60
2019-01-18T05:08:10.996Z,0.50
2019-01-18T05:09:10.985Z,0.60
2019-01-18T05:10:10.975Z,0.50
2019-01-18T05:11:10.964Z,0.60
2019-01-18T05:12:10.951Z,0.60
2019-01-18T05:13:10.949Z,0.50
2019-01-18T05:14:10.927Z,0.50
2019-01-18T05:15:10.917Z,0.50
2019-01-18T05:16:10.906Z,0.60
2019-01-18T05:17:10.895Z,0.50
2019-01-18T05:18:10.897Z,0.60
2019-01-18T05:19:11.145Z,0.40
2019-01-18T05:20:10.862Z,0.50
2019-01-18T05:21:10.848Z,0.40
2019-01-18T05:22:10.837Z,0.50
2019-01-18T05:23:10.826Z,0.50
2019-01-18T05:24:10.815Z,0.60
2019-01-18T05:25:10.813Z,0.50
2019-01-18T05:26:10.797Z,0.50
2019-01-18T05:27:10.781Z,0.70
2019-01-18T05:28:10.771Z,0.50
2019-01-18T05:29:10.759Z,0.50
2019-01-18T05:30:10.748Z,0.50
2019-01-18T05:31:10.746Z,0.40
2019-01-18T05:32:10.759Z,0.50
2019-01-18T05:33:10.714Z,0.40
2019-01-18T05:34:10.703Z,0.50
2019-01-18T05:35:10.690Z,0.50
2019-01-18T05:36:10.682Z,0.50
2019-01-18T05:37:10.679Z,0.70
2019-01-18T05:38:10.657Z,0.50
2019-01-18T05:39:10.646Z,0.40
2019-01-18T05:40:10.635Z,0.50
2019-01-18T05:41:10.625Z,0.60
2019-01-18T05:42:10.612Z,0.60
2019-01-18T05:43:10.611Z,0.40
2019-01-18T05:44:10.590Z,0.50
2019-01-18T05:45:10.578Z,0.40
2019-01-18T05:46:10.570Z,0.50
2019-01-18T05:47:10.562Z,0.50
2019-01-18T05:48:10.547Z,0.50
2019-01-18T05:49:10.543Z,0.60
2019-01-18T05:50:10.524Z,0.40
2019-01-18T05:51:10.513Z,0.30
2019-01-18T05:52:10.499Z,0.40
2019-01-18T05:53:10.490Z,0.60
2019-01-18T05:54:10.477Z,0.60
2019-01-18T05:55:10.477Z,0.60
2019-01-18T05:56:10.454Z,0.40
2019-01-18T05:57:10.443Z,0.50
2019-01-18T05:58:10.433Z,0.50
2019-01-18T05:59:10.421Z,0.50
2019-01-18T06:00:10.409Z,0.50
2019-01-18T06:01:10.407Z,0.60
2019-01-18T06:02:10.389Z,0.50
2019-01-18T06:03:10.380Z,0.60
2019-01-18T06:04:10.365Z,0.50
2019-01-18T06:05:10.353Z,0.40
2019-01-18T06:06:10.342Z,0.50
2019-01-18T06:07:10.344Z,0.40
2019-01-18T06:08:10.320Z,0.50
2019-01-18T06:09:10.320Z,0.50
2019-01-18T06:10:10.301Z,0.60
2019-01-18T06:11:10.285Z,0.50
2019-01-18T06:12:10.274Z,0.60
2019-01-18T06:13:10.272Z,0.50
2019-01-18T06:14:10.252Z,0.60
2019-01-18T06:15:10.241Z,0.40
2019-01-18T06:16:10.238Z,0.40
2019-01-18T06:17:10.218Z,0.60
2019-01-18T06:18:10.206Z,0.50
2019-01-18T06:19:10.224Z,0.50
2019-01-18T06:20:10.211Z,0.50
2019-01-18T06:21:10.173Z,0.60
2019-01-18T06:22:10.161Z,0.50
2019-01-18T06:23:10.150Z,0.40
2019-01-18T06:24:10.139Z,0.50
2019-01-18T06:25:10.161Z,0.60
2019-01-18T06:26:10.123Z,0.50
2019-01-18T06:27:10.122Z,0.50
2019-01-18T06:28:10.096Z,0.60
2019-01-18T06:29:10.086Z,0.50
2019-01-18T06:30:10.073Z,0.50
2019-01-18T06:31:10.068Z,0.50
2019-01-18T06:32:10.049Z,0.50
2019-01-18T06:33:10.037Z,0.50
2019-01-18T06:34:10.026Z,0.40
2019-01-18T06:35:10.015Z,0.50
2019-01-18T06:36:10.009Z,0.60
2019-01-18T06:37:10.049Z,0.40
2019-01-18T06:38:09.981Z,0.50
2019-01-18T06:39:09.973Z,0.50
2019-01-18T06:40:09.960Z,0.60
2019-01-18T06:41:09.948Z,0.60
2019-01-18T06:42:09.935Z,0.60
2019-01-18T06:43:09.937Z,0.50
2019-01-18T06:44:09.916Z,0.50
2019-01-18T06:45:09.902Z,0.50
2019-01-18T06:46:09.892Z,0.50
2019-01-18T06:47:09.881Z,0.40
2019-01-18T06:48:09.867Z,0.50
2019-01-18T06:49:09.877Z,0.50
2019-01-18T06:50:09.848Z,0.50
2019-01-18T06:51:09.839Z,0.50
2019-01-18T06:52:09.823Z,0.50
2019-01-18T06:53:09.812Z,0.50
2019-01-18T06:54:09.803Z,0.50
2019-01-18T06:55:10.122Z,0.50
2019-01-18T06:56:09.777Z,0.50
2019-01-18T06:57:09.765Z,0.50
2019-01-18T06:58:09.755Z,0.50
2019-01-18T06:59:09.744Z,0.40
2019-01-18T07:00:09.733Z,0.50
2019-01-18T07:01:09.728Z,0.50
2019-01-18T07:02:09.710Z,0.40
2019-01-18T07:03:09.702Z,0.40
2019-01-18T07:04:09.687Z,0.40
2019-01-18T07:05:09.677Z,0.30
2019-01-18T07:06:09.664Z,0.50
2019-01-18T07:07:09.665Z,0.50
2019-01-18T07:08:09.642Z,0.50
2019-01-18T07:09:09.633Z,0.50
2019-01-18T07:10:09.622Z,0.50
2019-01-18T07:11:09.608Z,0.60
2019-01-18T07:12:09.603Z,0.60
2019-01-18T07:13:09.593Z,0.60
2019-01-18T07:14:09.575Z,0.60
2019-01-18T07:15:09.563Z,0.40
2019-01-18T07:16:09.553Z,0.60
2019-01-18T07:17:09.543Z,0.50
2019-01-18T07:18:09.532Z,0.50
2019-01-18T07:19:09.527Z,0.50
2019-01-18T07:20:09.507Z,0.50
2019-01-18T07:21:09.502Z,0.50
2019-01-18T07:22:09.520Z,0.50
2019-01-18T07:23:09.473Z,0.50
2019-01-18T07:24:09.465Z,0.50
2019-01-18T07:25:09.460Z,0.50
2019-01-18T07:26:09.440Z,0.50
2019-01-18T07:27:09.427Z,0.50
2019-01-18T07:28:09.420Z,0.50
2019-01-18T07:29:09.406Z,0.50
2019-01-18T07:30:09.395Z,0.60
2019-01-18T07:31:14.957Z,0.40
2019-01-18T07:32:10.371Z,0.40
2019-01-18T07:33:09.360Z,0.50
2019-01-18T07:34:09.349Z,0.40
2019-01-18T07:35:09.338Z,0.60
2019-01-18T07:36:09.326Z,0.50
2019-01-18T07:37:09.323Z,0.50
2019-01-18T07:38:09.304Z,0.50
2019-01-18T07:39:09.294Z,0.50
2019-01-18T07:40:09.287Z,0.50
2019-01-18T07:41:09.272Z,0.60
2019-01-18T07:42:09.263Z,0.60
2019-01-18T07:43:09.257Z,0.50
2019-01-18T07:44:09.238Z,0.60
2019-01-18T07:45:09.226Z,0.50
2019-01-18T07:46:09.215Z,0.60
2019-01-18T07:47:09.203Z,0.60
2019-01-18T07:48:09.198Z,0.60
2019-01-18T07:49:09.189Z,0.50
2019-01-18T07:50:09.183Z,0.50
2019-01-18T07:51:09.157Z,0.50
2019-01-18T07:52:09.146Z,0.50
2019-01-18T07:53:09.136Z,0.50
2019-01-18T07:54:09.124Z,0.50
2019-01-18T07:55:09.438Z,0.50
2019-01-18T07:56:09.103Z,0.60
2019-01-18T07:57:09.092Z,0.50
2019-01-18T07:58:09.079Z,0.30
2019-01-18T07:59:09.068Z,0.50
2019-01-18T08:00:09.075Z,0.60
2019-01-18T08:01:09.369Z,0.50
2019-01-18T08:02:09.044Z,0.40
2019-01-18T08:03:09.022Z,0.30
2019-01-18T08:04:09.011Z,0.60
2019-01-18T08:05:09.003Z,0.50
2019-01-18T08:06:08.989Z,0.50
2019-01-18T08:07:08.987Z,0.40
2019-01-18T08:08:08.967Z,0.60
2019-01-18T08:09:08.955Z,0.40
2019-01-18T08:10:08.984Z,0.40
2019-01-18T08:11:08.933Z,0.60
2019-01-18T08:12:08.921Z,0.50
2019-01-18T08:13:08.919Z,0.40
2019-01-18T08:14:08.898Z,0.50
2019-01-18T08:15:08.888Z,0.60
2019-01-18T08:16:08.878Z,0.40
2019-01-18T08:17:08.865Z,0.40
2019-01-18T08:18:08.856Z,0.40
2019-01-18T08:19:08.851Z,0.40
2019-01-18T08:20:08.832Z,0.60
2019-01-18T08:21:08.820Z,0.70
2019-01-18T08:22:08.813Z,0.50
2019-01-18T08:23:08.798Z,0.40
2019-01-18T08:24:08.788Z,0.60
2019-01-18T08:25:08.785Z,0.50
2019-01-18T08:26:08.763Z,0.50
2019-01-18T08:27:08.756Z,0.70
2019-01-18T08:28:08.741Z,0.70
2019-01-18T08:29:08.730Z,0.60
2019-01-18T08:30:08.720Z,0.50
2019-01-18T08:31:08.718Z,0.60
2019-01-18T08:32:08.697Z,0.60
2019-01-18T08:33:08.686Z,0.60
2019-01-18T08:34:08.675Z,0.50
2019-01-18T08:35:08.710Z,0.60
2019-01-18T08:36:08.654Z,0.60
2019-01-18T08:37:08.648Z,0.60
2019-01-18T08:38:08.631Z,0.60
2019-01-18T08:39:08.619Z,0.60
2019-01-18T08:40:08.609Z,0.60
2019-01-18T08:41:08.598Z,0.60
2019-01-18T08:42:08.622Z,0.60
2019-01-18T08:43:08.595Z,0.50
2019-01-18T08:44:08.563Z,0.60
2019-01-18T08:45:08.550Z,0.50
2019-01-18T08:46:08.538Z,0.50
2019-01-18T08:47:08.532Z,0.50
2019-01-18T08:48:08.517Z,0.50
2019-01-18T08:49:08.514Z,0.50
2019-01-18T08:50:08.493Z,0.60
2019-01-18T08:51:08.483Z,0.50
2019-01-18T08:52:08.471Z,0.60
2019-01-18T08:53:08.459Z,0.50
2019-01-18T08:54:08.449Z,0.60
2019-01-18T08:55:08.447Z,0.50
2019-01-18T08:56:08.426Z,0.60
2019-01-18T08:57:08.415Z,0.50
2019-01-18T08:58:08.409Z,0.60
2019-01-18T08:59:08.392Z,0.60
2019-01-18T09:00:08.382Z,0.50
2019-01-18T09:01:08.395Z,0.60
2019-01-18T09:02:08.359Z,0.70
2019-01-18T09:03:08.363Z,0.60
2019-01-18T09:04:08.336Z,0.70
2019-01-18T09:05:08.801Z,0.60
2019-01-18T09:06:08.315Z,0.50
2019-01-18T09:07:08.311Z,0.50
2019-01-18T09:08:08.294Z,0.50
2019-01-18T09:09:08.281Z,0.50
2019-01-18T09:10:08.270Z,0.60
2019-01-18T09:11:08.259Z,0.60
2019-01-18T09:12:08.246Z,0.60
2019-01-18T09:13:08.249Z,0.70
2019-01-18T09:14:08.224Z,0.60
2019-01-18T09:15:08.215Z,0.70
2019-01-18T09:16:08.203Z,0.70
2019-01-18T09:17:08.194Z,0.60
2019-01-18T09:18:08.178Z,0.50
2019-01-18T09:19:08.180Z,0.50
2019-01-18T09:20:08.157Z,0.70
2019-01-18T09:21:08.144Z,0.70
2019-01-18T09:22:08.135Z,0.60
2019-01-18T09:23:08.123Z,0.50
2019-01-18T09:24:08.111Z,0.60
2019-01-18T09:25:08.112Z,0.50
2019-01-18T09:26:08.090Z,0.60
2019-01-18T09:27:08.079Z,0.60
2019-01-18T09:28:08.067Z,0.60
2019-01-18T09:29:08.056Z,0.60
2019-01-18T09:30:08.043Z,0.60
2019-01-18T09:31:08.042Z,0.80
2019-01-18T09:32:08.022Z,0.60
2019-01-18T09:33:08.017Z,0.70
2019-01-18T09:34:08.000Z,0.60
2019-01-18T09:35:07.987Z,0.70
2019-01-18T09:36:07.977Z,0.60
2019-01-18T09:37:07.972Z,0.60
2019-01-18T09:38:07.953Z,0.60
2019-01-18T09:39:07.942Z,0.50
2019-01-18T09:40:07.933Z,0.60
2019-01-18T09:41:07.921Z,0.60
2019-01-18T09:42:07.908Z,0.60
2019-01-18T09:43:07.910Z,0.70
2019-01-18T09:44:07.885Z,0.50
2019-01-18T09:45:07.875Z,0.60
2019-01-18T09:46:07.866Z,0.60
2019-01-18T09:47:07.853Z,0.50
2019-01-18T09:48:07.841Z,0.50
2019-01-18T09:49:07.837Z,0.60
2019-01-18T09:50:07.820Z,0.70
2019-01-18T09:51:07.808Z,0.60
2019-01-18T09:52:07.796Z,0.60
2019-01-18T09:53:07.789Z,0.60
2019-01-18T09:54:07.775Z,0.50
2019-01-18T09:55:07.769Z,0.60
2019-01-18T09:56:07.752Z,0.70
2019-01-18T09:57:07.743Z,0.70
2019-01-18T09:58:07.732Z,0.60
2019-01-18T09:59:07.718Z,0.60
2019-01-18T10:00:07.706Z,0.60
2019-01-18T10:01:07.704Z,0.60
2019-01-18T10:02:07.683Z,0.60
2019-01-18T10:03:07.679Z,0.70
2019-01-18T10:04:07.662Z,0.50
2019-01-18T10:05:07.649Z,0.70
2019-01-18T10:06:07.637Z,0.60
2019-01-18T10:07:07.634Z,0.70
2019-01-18T10:08:07.621Z,0.50
2019-01-18T10:09:07.605Z,0.70
2019-01-18T10:10:07.592Z,0.50
2019-01-18T10:11:07.581Z,0.60
2019-01-18T10:12:07.571Z,0.60
2019-01-18T10:13:07.566Z,0.60
2019-01-18T10:14:07.548Z,0.70
2019-01-18T10:15:07.538Z,0.60
2019-01-18T10:16:07.531Z,0.60
2019-01-18T10:17:07.515Z,0.60
2019-01-18T10:18:07.506Z,0.60
2019-01-18T10:19:07.499Z,0.60
2019-01-18T10:20:07.485Z,0.60
2019-01-18T10:21:07.472Z,0.50
2019-01-18T10:22:07.460Z,0.90
2019-01-18T10:23:07.449Z,0.60
2019-01-18T10:24:07.441Z,0.80
2019-01-18T10:25:07.438Z,0.60
2019-01-18T10:26:07.416Z,0.60
2019-01-18T10:27:07.401Z,0.70
2019-01-18T10:28:07.390Z,0.60
2019-01-18T10:29:07.382Z,0.60
2019-01-18T10:30:07.371Z,0.60
2019-01-18T10:31:07.365Z,0.60
2019-01-18T10:32:07.348Z,0.90
2019-01-18T10:33:07.342Z,0.50
2019-01-18T10:34:07.324Z,0.60
2019-01-18T10:35:07.313Z,0.80
2019-01-18T10:36:07.309Z,0.60
2019-01-18T10:37:07.298Z,0.70
2019-01-18T10:38:07.283Z,0.50
2019-01-18T10:39:07.269Z,0.80
2019-01-18T10:40:07.258Z,0.70
2019-01-18T10:41:07.250Z,0.60
2019-01-18T10:42:07.237Z,0.60
2019-01-18T10:43:07.516Z,0.70
2019-01-18T10:44:07.212Z,0.60
2019-01-18T10:45:07.203Z,0.80
2019-01-18T10:46:07.189Z,0.60
2019-01-18T10:47:07.178Z,0.60
2019-01-18T10:48:07.170Z,0.60
2019-01-18T10:49:07.168Z,0.80
2019-01-18T10:50:07.150Z,0.90
2019-01-18T10:51:07.134Z,0.70
2019-01-18T10:52:07.134Z,0.60
2019-01-18T10:53:07.112Z,0.80
2019-01-18T10:54:07.100Z,0.70
2019-01-18T10:55:07.101Z,0.70
2019-01-18T10:56:07.077Z,0.70
2019-01-18T10:57:07.066Z,0.80
2019-01-18T10:58:07.056Z,0.60
2019-01-18T10:59:07.044Z,0.70
2019-01-18T11:00:07.032Z,0.60
2019-01-18T11:01:07.030Z,0.80
2019-01-18T11:02:07.466Z,0.70
2019-01-18T11:03:07.002Z,0.60
2019-01-18T11:04:06.989Z,0.60
2019-01-18T11:05:06.984Z,0.70
2019-01-18T11:06:06.967Z,0.80
2019-01-18T11:07:06.962Z,0.60
2019-01-18T11:08:06.946Z,0.60
2019-01-18T11:09:06.930Z,0.90
2019-01-18T11:10:06.920Z,0.60
2019-01-18T11:11:06.913Z,0.80
2019-01-18T11:12:06.900Z,0.70
2019-01-18T11:13:06.896Z,0.70
2019-01-18T11:14:06.881Z,0.60
2019-01-18T11:15:06.866Z,0.80
2019-01-18T11:16:06.853Z,0.80
2019-01-18T11:17:06.846Z,0.70
2019-01-18T11:18:06.835Z,0.60
2019-01-18T11:19:06.828Z,0.80
2019-01-18T11:20:06.809Z,0.70
2019-01-18T11:21:06.801Z,0.70
2019-01-18T11:22:06.787Z,0.80
2019-01-18T11:23:06.780Z,0.70
2019-01-18T11:24:06.768Z,0.90
2019-01-18T11:25:06.770Z,0.80
2019-01-18T11:26:06.743Z,0.70
2019-01-18T11:27:06.736Z,0.70
2019-01-18T11:28:06.726Z,0.60
2019-01-18T11:29:06.710Z,0.50
2019-01-18T11:30:06.698Z,0.60
2019-01-18T11:31:06.693Z,0.70
2019-01-18T11:32:06.676Z,0.80
2019-01-18T11:33:06.665Z,0.60
2019-01-18T11:34:06.652Z,0.60
2019-01-18T11:35:06.644Z,0.90
2019-01-18T11:36:06.636Z,0.80
2019-01-18T11:37:06.627Z,0.60
2019-01-18T11:38:06.614Z,0.70
2019-01-18T11:39:06.599Z,0.70
2019-01-18T11:40:06.587Z,0.70
2019-01-18T11:41:06.580Z,0.60
2019-01-18T11:42:06.567Z,0.60
2019-01-18T11:43:06.843Z,0.60
2019-01-18T11:44:06.543Z,0.60
2019-01-18T11:45:06.531Z,0.90
2019-01-18T11:46:06.520Z,0.70
2019-01-18T11:47:06.508Z,0.70
2019-01-18T11:48:06.496Z,0.60
2019-01-18T11:49:06.785Z,0.70
2019-01-18T11:50:06.475Z,0.60
2019-01-18T11:51:06.469Z,0.70
2019-01-18T11:52:06.454Z,0.80
2019-01-18T11:53:06.443Z,0.70
2019-01-18T11:54:06.431Z,0.70
2019-01-18T11:55:07.250Z,0.60
2019-01-18T11:56:06.410Z,0.60
2019-01-18T11:57:06.405Z,0.80
2019-01-18T11:58:06.391Z,0.70
2019-01-18T11:59:06.374Z,0.70
2019-01-18T12:00:06.394Z,0.80
2019-01-18T12:01:06.683Z,0.80
2019-01-18T12:02:06.344Z,0.50
2019-01-18T12:03:06.331Z,0.70
2019-01-18T12:04:06.323Z,0.60
2019-01-18T12:05:06.311Z,0.60
2019-01-18T12:06:06.297Z,0.60
2019-01-18T12:07:06.606Z,0.70
2019-01-18T12:08:06.274Z,0.80
2019-01-18T12:09:06.266Z,0.80
2019-01-18T12:10:06.258Z,0.80
2019-01-18T12:11:06.242Z,0.80
2019-01-18T12:12:06.231Z,0.80
2019-01-18T12:13:06.547Z,0.70
2019-01-18T12:14:06.211Z,0.70
2019-01-18T12:15:06.198Z,0.90
2019-01-18T12:16:06.187Z,0.80
2019-01-18T12:17:06.179Z,0.90
2019-01-18T12:18:06.169Z,0.80
2019-01-18T12:19:06.159Z,0.80
2019-01-18T12:20:06.144Z,0.60
2019-01-18T12:21:06.130Z,0.70
2019-01-18T12:22:06.124Z,0.90
2019-01-18T12:23:06.113Z,0.60
2019-01-18T12:24:06.097Z,0.70
2019-01-18T12:25:06.374Z,0.80
2019-01-18T12:26:06.075Z,0.60
2019-01-18T12:27:06.065Z,0.70
2019-01-18T12:28:06.052Z,0.60
2019-01-18T12:29:06.045Z,0.70
2019-01-18T12:30:06.032Z,0.60
2019-01-18T12:31:06.030Z,0.80
2019-01-18T12:32:06.008Z,0.70
2019-01-18T12:33:06.002Z,0.70
2019-01-18T12:34:05.986Z,0.70
2019-01-18T12:35:05.979Z,0.70
2019-01-18T12:36:05.963Z,0.60
2019-01-18T12:37:06.247Z,0.50
2019-01-18T12:38:05.945Z,0.70
2019-01-18T12:39:05.934Z,0.60
2019-01-18T12:40:05.923Z,0.70
2019-01-18T12:41:05.911Z,0.60
2019-01-18T12:42:05.900Z,0.60
2019-01-18T12:43:05.896Z,0.60
2019-01-18T12:44:05.874Z,0.70
2019-01-18T12:45:05.864Z,0.80
2019-01-18T12:46:05.852Z,0.60
2019-01-18T12:47:05.843Z,0.60
2019-01-18T12:48:05.834Z,0.60
2019-01-18T12:49:05.860Z,0.70
2019-01-18T12:50:05.809Z,0.60
2019-01-18T12:51:05.799Z,0.80
2019-01-18T12:52:05.790Z,0.60
2019-01-18T12:53:05.774Z,0.70
2019-01-18T12:54:05.764Z,0.70
2019-01-18T12:55:06.078Z,0.50
2019-01-18T12:56:05.747Z,0.70
2019-01-18T12:57:05.730Z,0.70
2019-01-18T12:58:05.719Z,0.80
2019-01-18T12:59:05.711Z,0.90
2019-01-18T13:00:05.698Z,0.70
2019-01-18T13:01:06.007Z,0.90
2019-01-18T13:02:05.677Z,1.00
2019-01-18T13:03:05.663Z,1.30
2019-01-18T13:04:08.270Z,1.00
2019-01-18T13:05:05.645Z,1.30
2019-01-18T13:06:05.634Z,0.90
2019-01-18T13:07:05.899Z,1.10
2019-01-18T13:08:05.609Z,1.30
2019-01-18T13:09:05.597Z,1.40
2019-01-18T13:10:11.598Z,1.30
2019-01-18T13:11:06.573Z,1.20
2019-01-18T13:12:05.567Z,1.30
2019-01-18T13:13:05.907Z,1.30
2019-01-18T13:14:05.543Z,1.70
2019-01-18T13:15:05.530Z,1.60
2019-01-18T13:16:05.524Z,1.30
2019-01-18T13:17:05.508Z,1.50
2019-01-18T13:18:05.497Z,1.60